createdAt,value
2019-06-17T00:00:59.256Z,0.00
2019-06-17T00:01:55.525Z,0.00
2019-06-17T00:02:55.530Z,0.00
2019-06-17T00:03:55.499Z,0.00
2019-06-17T00:04:55.480Z,0.00
2019-06-17T00:05:55.495Z,0.00
2019-06-17T00:06:55.456Z,0.00
2019-06-17T00:07:55.456Z,0.00
2019-06-17T00:08:55.426Z,0.00
2019-06-17T00:09:55.415Z,0.00
2019-06-17T00:10:55.400Z,0.00
2019-06-17T00:11:55.380Z,0.00
2019-06-17T00:12:55.374Z,0.00
2019-06-17T00:13:55.352Z,0.00
2019-06-17T00:14:55.346Z,0.00
2019-06-17T00:15:55.327Z,0.00
2019-06-17T00:16:55.307Z,0.00
2019-06-17T00:17:55.295Z,0.00
2019-06-17T00:18:55.292Z,0.00
2019-06-17T00:19:55.267Z,0.00
2019-06-17T00:20:55.252Z,0.00
2019-06-17T00:21:55.241Z,0.00
2019-06-17T00:22:55.221Z,0.00
2019-06-17T00:23:55.227Z,0.00
2019-06-17T00:24:55.193Z,0.00
2019-06-17T00:25:55.179Z,0.00
2019-06-17T00:26:55.172Z,0.00
2019-06-17T00:27:55.154Z,0.00
2019-06-17T00:28:55.155Z,0.00
2019-06-17T00:29:55.120Z,0.00
2019-06-17T00:30:55.110Z,0.00
2019-06-17T00:31:55.086Z,0.00
2019-06-17T00:32:55.081Z,0.00
2019-06-17T00:33:55.068Z,0.00
2019-06-17T00:34:55.047Z,0.00
2019-06-17T00:35:55.036Z,0.00
2019-06-17T00:36:55.014Z,0.00
2019-06-17T00:37:55.008Z,0.00
2019-06-17T00:38:55.026Z,0.00
2019-06-17T00:39:54.973Z,0.00
2019-06-17T00:40:54.967Z,0.00
2019-06-17T00:41:54.945Z,0.00
2019-06-17T00:42:54.949Z,0.00
2019-06-17T00:43:54.953Z,0.00
2019-06-17T00:44:54.903Z,0.00
2019-06-17T00:45:54.896Z,0.00
2019-06-17T00:46:54.880Z,0.00
2019-06-17T00:47:54.885Z,0.00
2019-06-17T00:48:54.850Z,0.00
2019-06-17T00:49:54.833Z,0.00
2019-06-17T00:50:54.817Z,0.00
2019-06-17T00:51:54.801Z,0.00
2019-06-17T00:52:54.790Z,0.00
2019-06-17T00:53:54.787Z,0.00
2019-06-17T00:54:54.759Z,0.00
2019-06-17T00:56:03.153Z,0.00
2019-06-17T00:56:54.733Z,0.00
2019-06-17T00:57:54.713Z,0.00
2019-06-17T00:58:54.703Z,0.00
2019-06-17T00:59:54.702Z,0.00
2019-06-17T01:00:54.669Z,0.00
2019-06-17T01:01:54.672Z,0.00
2019-06-17T01:02:54.652Z,0.00
2019-06-17T01:03:54.641Z,0.00
2019-06-17T01:04:54.619Z,0.00
2019-06-17T01:05:54.623Z,0.00
2019-06-17T01:06:54.586Z,0.00
2019-06-17T01:07:54.574Z,0.00
2019-06-17T01:08:54.550Z,0.00
2019-06-17T01:09:54.551Z,0.00
2019-06-17T01:10:54.530Z,0.00
2019-06-17T01:11:54.514Z,0.00
2019-06-17T01:12:54.503Z,0.00
2019-06-17T01:13:54.485Z,0.00
2019-06-17T01:14:54.470Z,0.00
2019-06-17T01:15:54.455Z,0.00
2019-06-17T01:16:54.459Z,0.00
2019-06-17T01:17:54.426Z,0.00
2019-06-17T01:18:54.410Z,0.00
2019-06-17T01:19:54.414Z,0.00
2019-06-17T01:20:54.382Z,0.00
2019-06-17T01:21:54.360Z,0.00
2019-06-17T01:22:54.346Z,0.00
2019-06-17T01:23:54.342Z,0.00
2019-06-17T01:24:54.330Z,0.00
2019-06-17T01:25:54.311Z,0.00
2019-06-17T01:26:54.292Z,0.00
2019-06-17T01:27:54.278Z,0.00
2019-06-17T01:28:54.263Z,0.00
2019-06-17T01:29:54.261Z,0.00
2019-06-17T01:30:54.257Z,0.00
2019-06-17T01:31:54.218Z,0.00
2019-06-17T01:32:54.214Z,0.00
2019-06-17T01:33:54.199Z,0.00
2019-06-17T01:34:54.198Z,0.00
2019-06-17T01:35:54.166Z,0.00
2019-06-17T01:36:54.144Z,0.00
2019-06-17T01:37:54.129Z,0.00
2019-06-17T01:38:54.112Z,0.00
2019-06-17T01:39:54.099Z,0.00
2019-06-17T01:40:54.090Z,0.00
2019-06-17T01:41:54.085Z,0.00
2019-06-17T01:42:54.059Z,0.00
2019-06-17T01:43:54.037Z,0.00
2019-06-17T01:44:54.026Z,0.00
2019-06-17T01:45:54.016Z,0.00
2019-06-17T01:46:53.998Z,0.00
2019-06-17T01:47:53.985Z,0.00
2019-06-17T01:48:53.971Z,0.00
2019-06-17T01:49:53.954Z,0.00
2019-06-17T01:50:53.932Z,0.00
2019-06-17T01:51:53.923Z,0.00
2019-06-17T01:52:53.904Z,0.00
2019-06-17T01:53:53.891Z,0.00
2019-06-17T01:54:53.940Z,0.00
2019-06-17T01:55:53.932Z,0.00
2019-06-17T01:56:53.969Z,0.00
2019-06-17T01:57:53.833Z,0.00
2019-06-17T01:58:53.833Z,0.00
2019-06-17T01:59:53.800Z,0.00
2019-06-17T02:00:53.789Z,0.00
2019-06-17T02:02:06.301Z,0.00
2019-06-17T02:02:53.755Z,0.00
2019-06-17T02:03:53.743Z,0.00
2019-06-17T02:04:53.723Z,0.00
2019-06-17T02:05:53.712Z,0.00
2019-06-17T02:06:53.696Z,0.00
2019-06-17T02:07:53.680Z,0.00
2019-06-17T02:08:53.666Z,0.00
2019-06-17T02:09:53.676Z,0.00
2019-06-17T02:10:53.640Z,0.00
2019-06-17T02:11:53.628Z,0.00
2019-06-17T02:12:53.601Z,0.00
2019-06-17T02:13:53.589Z,0.00
2019-06-17T02:14:53.568Z,0.00
2019-06-17T02:15:53.574Z,0.00
2019-06-17T02:16:53.554Z,0.00
2019-06-17T02:17:53.537Z,0.00
2019-06-17T02:18:53.517Z,0.00
2019-06-17T02:19:53.561Z,0.00
2019-06-17T02:20:53.485Z,0.00
2019-06-17T02:21:53.468Z,0.00
2019-06-17T02:22:53.461Z,0.00
2019-06-17T02:23:53.445Z,0.00
2019-06-17T02:24:53.427Z,0.00
2019-06-17T02:25:53.417Z,0.00
2019-06-17T02:26:53.399Z,0.00
2019-06-17T02:27:53.378Z,0.00
2019-06-17T02:28:53.367Z,0.00
2019-06-17T02:29:53.358Z,0.00
2019-06-17T02:30:53.330Z,0.00
2019-06-17T02:31:53.326Z,0.00
2019-06-17T02:32:53.318Z,0.00
2019-06-17T02:33:53.298Z,0.00
2019-06-17T02:34:53.268Z,0.00
2019-06-17T02:35:53.258Z,0.00
2019-06-17T02:36:53.242Z,0.00
2019-06-17T02:37:53.221Z,0.00
2019-06-17T02:38:54.434Z,0.00
2019-06-17T02:39:53.191Z,0.00
2019-06-17T02:40:53.180Z,0.00
2019-06-17T02:41:53.164Z,0.00
2019-06-17T02:42:53.151Z,0.00
2019-06-17T02:43:53.127Z,0.00
2019-06-17T02:44:53.114Z,0.00
2019-06-17T02:45:53.104Z,0.00
2019-06-17T02:46:53.078Z,0.00
2019-06-17T02:47:53.072Z,0.00
2019-06-17T02:48:59.027Z,0.00
2019-06-17T02:49:53.039Z,0.00
2019-06-17T02:50:53.025Z,0.00
2019-06-17T02:51:53.083Z,0.00
2019-06-17T02:52:53.027Z,0.00
2019-06-17T02:53:52.972Z,0.00
2019-06-17T02:54:52.964Z,0.00
2019-06-17T02:55:52.947Z,0.00
2019-06-17T02:56:52.929Z,0.00
2019-06-17T02:57:52.916Z,0.00
2019-06-17T02:58:52.898Z,0.00
2019-06-17T02:59:52.899Z,0.00
2019-06-17T03:00:52.865Z,0.00
2019-06-17T03:01:52.872Z,0.00
2019-06-17T03:02:52.857Z,0.00
2019-06-17T03:03:52.914Z,0.00
2019-06-17T03:04:52.808Z,0.00
2019-06-17T03:05:52.795Z,0.00
2019-06-17T03:06:52.777Z,0.00
2019-06-17T03:07:52.762Z,0.00
2019-06-17T03:08:52.745Z,0.00
2019-06-17T03:09:52.731Z,0.00
2019-06-17T03:10:52.722Z,0.00
2019-06-17T03:11:52.696Z,0.00
2019-06-17T03:12:52.686Z,0.00
2019-06-17T03:13:52.669Z,0.00
2019-06-17T03:14:52.646Z,0.00
2019-06-17T03:15:52.632Z,0.00
2019-06-17T03:16:52.617Z,0.00
2019-06-17T03:17:52.609Z,0.00
2019-06-17T03:18:52.582Z,0.00
2019-06-17T03:19:52.573Z,0.00
2019-06-17T03:20:52.571Z,0.00
2019-06-17T03:21:52.541Z,0.00
2019-06-17T03:22:52.540Z,0.00
2019-06-17T03:23:52.506Z,0.00
2019-06-17T03:24:52.488Z,0.00
2019-06-17T03:25:55.800Z,0.00
2019-06-17T03:26:52.466Z,0.00
2019-06-17T03:27:52.449Z,0.00
2019-06-17T03:28:52.431Z,0.00
2019-06-17T03:29:52.418Z,0.00
2019-06-17T03:30:52.821Z,0.00
2019-06-17T03:31:52.881Z,0.00
2019-06-17T03:33:11.173Z,0.00
2019-06-17T03:33:53.239Z,0.00
2019-06-17T03:34:53.040Z,0.00
2019-06-17T03:35:52.325Z,5.63
2019-06-17T03:36:52.310Z,5.63
2019-06-17T03:37:52.289Z,5.63
2019-06-17T03:38:52.278Z,5.63
2019-06-17T03:39:52.260Z,5.63
2019-06-17T03:40:52.249Z,5.63
2019-06-17T03:41:52.229Z,5.63
2019-06-17T03:42:52.263Z,5.63
2019-06-17T03:43:52.200Z,5.63
2019-06-17T03:44:52.198Z,5.63
2019-06-17T03:45:52.167Z,5.63
2019-06-17T03:46:52.185Z,5.63
2019-06-17T03:47:52.137Z,5.63
2019-06-17T03:48:52.120Z,5.63
2019-06-17T03:49:52.126Z,5.63
2019-06-17T03:50:52.106Z,5.63
2019-06-17T03:51:52.077Z,5.63
2019-06-17T03:52:52.061Z,5.63
2019-06-17T03:53:52.040Z,5.63
2019-06-17T03:54:52.024Z,5.63
2019-06-17T03:55:52.016Z,5.63
2019-06-17T03:56:51.996Z,5.63
2019-06-17T03:57:51.981Z,5.63
2019-06-17T03:58:51.967Z,5.63
2019-06-17T03:59:52.401Z,11.25
2019-06-17T04:00:51.935Z,11.25
2019-06-17T04:01:51.921Z,11.25
2019-06-17T04:02:53.142Z,11.25
2019-06-17T04:03:51.895Z,11.25
2019-06-17T04:04:51.905Z,11.25
2019-06-17T04:05:51.859Z,11.25
2019-06-17T04:06:51.843Z,11.25
2019-06-17T04:07:51.836Z,11.25
2019-06-17T04:08:51.817Z,11.25
2019-06-17T04:09:51.796Z,11.25
2019-06-17T04:10:51.779Z,11.25
2019-06-17T04:11:51.765Z,11.25
2019-06-17T04:12:51.750Z,11.25
2019-06-17T04:13:52.015Z,11.25
2019-06-17T04:14:51.727Z,11.25
2019-06-17T04:15:51.716Z,16.88
2019-06-17T04:16:51.688Z,16.88
2019-06-17T04:17:51.675Z,16.88
2019-06-17T04:18:51.656Z,16.88
2019-06-17T04:19:51.642Z,16.88
2019-06-17T04:20:51.625Z,16.88
2019-06-17T04:21:51.614Z,22.50
2019-06-17T04:22:51.594Z,22.50
2019-06-17T04:23:51.580Z,22.50
2019-06-17T04:24:51.571Z,22.50
2019-06-17T04:25:51.553Z,28.13
2019-06-17T04:26:51.538Z,28.13
2019-06-17T04:27:51.528Z,28.13
2019-06-17T04:28:51.502Z,33.75
2019-06-17T04:29:51.489Z,33.75
2019-06-17T04:30:51.471Z,33.75
2019-06-17T04:31:51.454Z,33.75
2019-06-17T04:32:51.445Z,39.38
2019-06-17T04:33:59.081Z,39.38
2019-06-17T04:34:51.412Z,39.38
2019-06-17T04:35:51.401Z,39.38
2019-06-17T04:36:51.381Z,39.38
2019-06-17T04:37:51.457Z,45.00
2019-06-17T04:38:51.352Z,45.00
2019-06-17T04:39:51.339Z,45.00
2019-06-17T04:40:51.326Z,45.00
2019-06-17T04:41:51.307Z,45.00
2019-06-17T04:42:51.298Z,45.00
2019-06-17T04:43:51.275Z,50.63
2019-06-17T04:44:51.261Z,50.63
2019-06-17T04:45:51.257Z,50.63
2019-06-17T04:46:51.412Z,50.63
2019-06-17T04:47:51.547Z,50.63
2019-06-17T04:48:51.202Z,56.25
2019-06-17T04:49:51.191Z,56.25
2019-06-17T04:50:51.173Z,56.25
2019-06-17T04:51:51.181Z,56.25
2019-06-17T04:52:51.476Z,56.25
2019-06-17T04:53:51.217Z,61.88
2019-06-17T04:54:51.113Z,61.88
2019-06-17T04:55:51.106Z,61.88
2019-06-17T04:56:51.089Z,61.88
2019-06-17T04:57:51.765Z,61.88
2019-06-17T04:58:51.056Z,61.88
2019-06-17T04:59:51.551Z,61.88
2019-06-17T05:00:51.022Z,61.88
2019-06-17T05:01:51.477Z,61.88
2019-06-17T05:02:51.446Z,61.88
2019-06-17T05:03:51.003Z,67.50
2019-06-17T05:04:52.029Z,67.50
2019-06-17T05:05:50.950Z,67.50
2019-06-17T05:06:50.937Z,67.50
2019-06-17T05:07:50.924Z,73.13
2019-06-17T05:08:51.172Z,73.13
2019-06-17T05:09:51.325Z,73.13
2019-06-17T05:10:51.032Z,73.13
2019-06-17T05:11:50.979Z,73.13
2019-06-17T05:12:50.854Z,78.75
2019-06-17T05:13:51.523Z,78.75
2019-06-17T05:14:51.431Z,78.75
2019-06-17T05:15:50.972Z,78.75
2019-06-17T05:16:51.056Z,78.75
2019-06-17T05:17:51.246Z,84.38
2019-06-17T05:18:51.058Z,84.38
2019-06-17T05:19:51.199Z,84.38
2019-06-17T05:20:50.942Z,84.38
2019-06-17T05:21:51.672Z,90.00
2019-06-17T05:22:50.781Z,90.00
2019-06-17T05:23:51.125Z,90.00
2019-06-17T05:24:51.146Z,90.00
2019-06-17T05:25:50.679Z,95.63
2019-06-17T05:26:51.115Z,95.63
2019-06-17T05:27:50.817Z,95.63
2019-06-17T05:28:51.377Z,95.63
2019-06-17T05:29:50.983Z,101.25
2019-06-17T05:30:50.937Z,101.25
2019-06-17T05:31:51.036Z,101.25
2019-06-17T05:32:51.548Z,101.25
2019-06-17T05:33:50.797Z,106.88
2019-06-17T05:34:50.902Z,106.88
2019-06-17T05:35:51.054Z,106.88
2019-06-17T05:36:51.175Z,112.50
2019-06-17T05:37:51.084Z,112.50
2019-06-17T05:38:50.920Z,112.50
2019-06-17T05:39:51.005Z,112.50
2019-06-17T05:40:50.985Z,118.13
2019-06-17T05:41:50.966Z,118.13
2019-06-17T05:42:51.012Z,118.13
2019-06-17T05:43:51.359Z,118.13
2019-06-17T05:44:51.387Z,118.13
2019-06-17T05:45:51.050Z,118.13
2019-06-17T05:46:51.100Z,123.75
2019-06-17T05:47:50.976Z,123.75
2019-06-17T05:48:51.233Z,123.75
2019-06-17T05:49:51.104Z,123.75
2019-06-17T05:50:50.379Z,129.38
2019-06-17T05:51:50.704Z,129.38
2019-06-17T05:52:51.161Z,135.00
2019-06-17T05:53:51.138Z,135.00
2019-06-17T05:54:50.739Z,135.00
2019-06-17T05:55:50.946Z,135.00
2019-06-17T05:56:51.119Z,135.00
2019-06-17T05:57:50.764Z,140.63
2019-06-17T05:58:50.803Z,140.63
2019-06-17T05:59:51.062Z,140.63
2019-06-17T06:00:51.364Z,140.63
2019-06-17T06:01:52.210Z,140.63
2019-06-17T06:02:51.909Z,146.25
2019-06-17T06:03:51.175Z,146.25
2019-06-17T06:04:54.504Z,146.25
2019-06-17T06:05:51.816Z,146.25
2019-06-17T06:06:51.312Z,146.25
2019-06-17T06:07:51.119Z,146.25
2019-06-17T06:08:51.383Z,146.25
2019-06-17T06:09:50.332Z,151.88
2019-06-17T06:10:51.807Z,151.88
2019-06-17T06:11:51.279Z,151.88
2019-06-17T06:12:50.726Z,151.88
2019-06-17T06:13:53.229Z,151.88
2019-06-17T06:14:50.972Z,151.88
2019-06-17T06:15:50.600Z,157.50
2019-06-17T06:16:50.511Z,157.50
2019-06-17T06:17:50.762Z,157.50
2019-06-17T06:18:51.238Z,157.50
2019-06-17T06:19:51.271Z,157.50
2019-06-17T06:20:51.064Z,157.50
2019-06-17T06:21:51.648Z,157.50
2019-06-17T06:22:50.584Z,163.13
2019-06-17T06:23:51.486Z,163.13
2019-06-17T06:24:51.189Z,163.13
2019-06-17T06:25:50.942Z,163.13
2019-06-17T06:26:51.295Z,163.13
2019-06-17T06:27:51.635Z,168.75
2019-06-17T06:28:51.341Z,168.75
2019-06-17T06:29:51.079Z,168.75
2019-06-17T06:30:50.503Z,168.75
2019-06-17T06:31:51.986Z,174.38
2019-06-17T06:32:51.632Z,174.38
2019-06-17T06:33:51.213Z,174.38
2019-06-17T06:35:06.875Z,174.38
2019-06-17T06:35:52.395Z,180.00
2019-06-17T06:36:50.780Z,180.00
2019-06-17T06:37:51.398Z,180.00
2019-06-17T06:38:50.287Z,180.00
2019-06-17T06:39:50.940Z,185.63
2019-06-17T06:40:50.299Z,185.63
2019-06-17T06:41:50.507Z,185.63
2019-06-17T06:42:50.988Z,191.25
2019-06-17T06:43:53.277Z,191.25
2019-06-17T06:44:51.939Z,191.25
2019-06-17T06:45:50.597Z,191.25
2019-06-17T06:46:50.481Z,191.25
2019-06-17T06:47:51.334Z,191.25
2019-06-17T06:48:50.842Z,191.25
2019-06-17T06:49:51.118Z,196.88
2019-06-17T06:50:50.419Z,196.88
2019-06-17T06:51:50.896Z,202.50
2019-06-17T06:52:50.635Z,202.50
2019-06-17T06:53:50.994Z,208.13
2019-06-17T06:54:51.386Z,208.13
2019-06-17T06:55:50.943Z,213.75
2019-06-17T06:56:51.861Z,213.75
2019-06-17T06:57:50.326Z,219.38
2019-06-17T06:58:50.751Z,225.00
2019-06-17T06:59:50.521Z,225.00
2019-06-17T07:00:51.244Z,230.63
2019-06-17T07:01:51.222Z,230.63
2019-06-17T07:02:51.533Z,230.63
2019-06-17T07:03:51.332Z,230.63
2019-06-17T07:04:50.485Z,236.25
2019-06-17T07:05:56.463Z,236.25
2019-06-17T07:06:51.231Z,241.88
2019-06-17T07:07:51.590Z,236.25
2019-06-17T07:08:50.995Z,236.25
2019-06-17T07:09:51.644Z,241.88
2019-06-17T07:10:50.723Z,241.88
2019-06-17T07:11:51.787Z,241.88
2019-06-17T07:12:51.524Z,241.88
2019-06-17T07:13:50.408Z,241.88
2019-06-17T07:14:50.474Z,247.50
2019-06-17T07:15:51.618Z,247.50
2019-06-17T07:16:50.703Z,247.50
2019-06-17T07:17:51.547Z,253.13
2019-06-17T07:18:50.446Z,253.13
2019-06-17T07:19:51.973Z,253.13
2019-06-17T07:20:50.929Z,253.13
2019-06-17T07:21:50.830Z,258.75
2019-06-17T07:22:50.981Z,258.75
2019-06-17T07:23:50.401Z,258.75
2019-06-17T07:24:50.882Z,264.38
2019-06-17T07:25:50.274Z,264.38
2019-06-17T07:26:50.692Z,264.38
2019-06-17T07:27:51.398Z,270.00
2019-06-17T07:28:50.182Z,275.63
2019-06-17T07:29:50.587Z,275.63
2019-06-17T07:30:51.051Z,275.63
2019-06-17T07:31:51.110Z,281.25
2019-06-17T07:32:51.323Z,281.25
2019-06-17T07:33:59.476Z,286.88
2019-06-17T07:34:51.134Z,286.88
2019-06-17T07:35:50.134Z,286.88
2019-06-17T07:36:51.123Z,292.50
2019-06-17T07:37:50.814Z,292.50
2019-06-17T07:38:51.472Z,298.13
2019-06-17T07:39:49.196Z,298.13
2019-06-17T07:40:50.713Z,303.75
2019-06-17T07:41:50.948Z,309.38
2019-06-17T07:42:52.458Z,309.38
2019-06-17T07:43:51.234Z,309.38
2019-06-17T07:44:51.269Z,320.63
2019-06-17T07:45:50.406Z,315.00
2019-06-17T07:46:51.056Z,320.63
2019-06-17T07:47:51.220Z,320.63
2019-06-17T07:48:51.162Z,320.63
2019-06-17T07:49:51.432Z,320.63
2019-06-17T07:50:51.549Z,326.25
2019-06-17T07:51:51.198Z,326.25
2019-06-17T07:52:51.188Z,331.88
2019-06-17T07:53:51.428Z,331.88
2019-06-17T07:54:58.863Z,337.50
2019-06-17T07:55:50.890Z,337.50
2019-06-17T07:56:51.345Z,337.50
2019-06-17T07:57:50.855Z,337.50
2019-06-17T07:58:50.984Z,337.50
2019-06-17T07:59:51.148Z,337.50
2019-06-17T08:00:51.146Z,331.88
2019-06-17T08:01:51.841Z,331.88
2019-06-17T08:02:50.637Z,331.88
2019-06-17T08:03:51.210Z,326.25
2019-06-17T08:04:51.070Z,331.88
2019-06-17T08:05:56.778Z,331.88
2019-06-17T08:06:51.670Z,331.88
2019-06-17T08:07:50.340Z,331.88
2019-06-17T08:08:51.425Z,331.88
2019-06-17T08:09:50.689Z,331.88
2019-06-17T08:10:50.622Z,343.13
2019-06-17T08:11:51.645Z,337.50
2019-06-17T08:12:50.872Z,337.50
2019-06-17T08:13:51.542Z,337.50
2019-06-17T08:14:51.027Z,337.50
2019-06-17T08:15:51.268Z,343.13
2019-06-17T08:16:51.432Z,343.13
2019-06-17T08:17:50.700Z,343.13
2019-06-17T08:18:50.687Z,343.13
2019-06-17T08:19:50.922Z,343.13
2019-06-17T08:20:51.037Z,348.75
2019-06-17T08:21:50.576Z,343.13
2019-06-17T08:22:51.009Z,343.13
2019-06-17T08:23:50.466Z,343.13
2019-06-17T08:24:51.561Z,343.13
2019-06-17T08:25:50.821Z,343.13
2019-06-17T08:26:51.032Z,343.13
2019-06-17T08:27:50.905Z,343.13
2019-06-17T08:28:50.295Z,343.13
2019-06-17T08:29:51.810Z,343.13
2019-06-17T08:30:48.941Z,343.13
2019-06-17T08:31:51.019Z,343.13
2019-06-17T08:32:51.195Z,343.13
2019-06-17T08:33:50.683Z,343.13
2019-06-17T08:34:51.036Z,343.13
2019-06-17T08:35:51.139Z,343.13
2019-06-17T08:36:51.590Z,343.13
2019-06-17T08:37:50.932Z,343.13
2019-06-17T08:38:51.234Z,343.13
2019-06-17T08:39:50.922Z,343.13
2019-06-17T08:40:50.807Z,343.13
2019-06-17T08:41:51.122Z,343.13
2019-06-17T08:43:02.473Z,343.13
2019-06-17T08:43:50.877Z,337.50
2019-06-17T08:44:51.272Z,343.13
2019-06-17T08:45:51.227Z,337.50
2019-06-17T08:46:52.001Z,337.50
2019-06-17T08:47:51.832Z,337.50
2019-06-17T08:48:51.255Z,337.50
2019-06-17T08:49:51.157Z,337.50
2019-06-17T08:50:51.205Z,337.50
2019-06-17T08:51:51.404Z,337.50
2019-06-17T08:52:50.251Z,337.50
2019-06-17T08:54:02.519Z,337.50
2019-06-17T08:54:51.282Z,337.50
2019-06-17T08:55:51.048Z,343.13
2019-06-17T08:56:50.685Z,337.50
2019-06-17T08:57:51.337Z,331.88
2019-06-17T08:58:51.200Z,343.13
2019-06-17T08:59:51.474Z,331.88
2019-06-17T09:00:51.767Z,331.88
2019-06-17T09:01:52.230Z,337.50
2019-06-17T09:02:50.690Z,331.88
2019-06-17T09:03:50.912Z,326.25
2019-06-17T09:04:51.344Z,326.25
2019-06-17T09:05:50.646Z,320.63
2019-06-17T09:06:51.031Z,320.63
2019-06-17T09:07:51.512Z,320.63
2019-06-17T09:08:51.022Z,320.63
2019-06-17T09:09:50.732Z,320.63
2019-06-17T09:10:50.550Z,320.63
2019-06-17T09:11:50.373Z,315.00
2019-06-17T09:12:51.247Z,315.00
2019-06-17T09:13:50.933Z,315.00
2019-06-17T09:14:53.691Z,320.63
2019-06-17T09:15:53.018Z,315.00
2019-06-17T09:16:50.940Z,315.00
2019-06-17T09:17:50.714Z,309.38
2019-06-17T09:18:51.176Z,309.38
2019-06-17T09:19:51.434Z,315.00
2019-06-17T09:20:51.027Z,315.00
2019-06-17T09:21:51.052Z,309.38
2019-06-17T09:22:50.772Z,315.00
2019-06-17T09:23:50.287Z,315.00
2019-06-17T09:24:50.994Z,315.00
2019-06-17T09:25:51.195Z,303.75
2019-06-17T09:26:51.077Z,303.75
2019-06-17T09:27:51.480Z,309.38
2019-06-17T09:28:50.886Z,303.75
2019-06-17T09:29:50.898Z,303.75
2019-06-17T09:30:50.824Z,303.75
2019-06-17T09:31:50.856Z,309.38
2019-06-17T09:32:50.753Z,303.75
2019-06-17T09:33:51.440Z,303.75
2019-06-17T09:34:50.888Z,303.75
2019-06-17T09:35:50.684Z,303.75
2019-06-17T09:36:52.601Z,298.13
2019-06-17T09:37:50.833Z,303.75
2019-06-17T09:38:50.518Z,298.13
2019-06-17T09:39:51.284Z,303.75
2019-06-17T09:40:50.930Z,298.13
2019-06-17T09:41:50.819Z,298.13
2019-06-17T09:42:51.586Z,298.13
2019-06-17T09:43:50.431Z,298.13
2019-06-17T09:44:51.109Z,298.13
2019-06-17T09:45:51.154Z,298.13
2019-06-17T09:46:51.055Z,298.13
2019-06-17T09:47:50.962Z,298.13
2019-06-17T09:48:50.871Z,298.13
2019-06-17T09:49:50.799Z,298.13
2019-06-17T09:50:50.593Z,298.13
2019-06-17T09:51:50.905Z,298.13
2019-06-17T09:52:51.089Z,298.13
2019-06-17T09:53:51.239Z,292.50
2019-06-17T09:54:50.999Z,292.50
2019-06-17T09:55:48.709Z,298.13
2019-06-17T09:56:50.948Z,298.13
2019-06-17T09:57:50.689Z,292.50
2019-06-17T09:58:50.641Z,298.13
2019-06-17T09:59:50.917Z,292.50
2019-06-17T10:00:48.641Z,298.13
2019-06-17T10:01:48.651Z,292.50
2019-06-17T10:02:51.185Z,298.13
2019-06-17T10:03:51.126Z,292.50
2019-06-17T10:04:50.852Z,292.50
2019-06-17T10:05:51.163Z,298.13
2019-06-17T10:06:59.408Z,292.50
2019-06-17T10:07:50.852Z,292.50
2019-06-17T10:08:51.408Z,292.50
2019-06-17T10:09:50.491Z,292.50
2019-06-17T10:10:48.632Z,298.13
2019-06-17T10:11:50.702Z,292.50
2019-06-17T10:12:48.614Z,292.50
2019-06-17T10:13:51.273Z,286.88
2019-06-17T10:14:48.609Z,286.88
2019-06-17T10:15:48.607Z,286.88
2019-06-17T10:16:51.311Z,286.88
2019-06-17T10:17:50.605Z,286.88
2019-06-17T10:18:51.097Z,286.88
2019-06-17T10:19:51.144Z,286.88
2019-06-17T10:20:50.484Z,286.88
2019-06-17T10:21:51.301Z,286.88
2019-06-17T10:22:50.593Z,286.88
2019-06-17T10:23:58.493Z,292.50
2019-06-17T10:24:50.746Z,292.50
2019-06-17T10:25:51.391Z,292.50
2019-06-17T10:26:48.591Z,292.50
2019-06-17T10:27:50.777Z,292.50
2019-06-17T10:28:50.525Z,292.50
2019-06-17T10:29:50.531Z,286.88
2019-06-17T10:30:51.064Z,292.50
2019-06-17T10:31:50.733Z,286.88
2019-06-17T10:32:51.422Z,292.50
2019-06-17T10:33:50.724Z,292.50
2019-06-17T10:34:50.528Z,292.50
2019-06-17T10:35:50.786Z,292.50
2019-06-17T10:36:51.072Z,292.50
2019-06-17T10:37:50.654Z,292.50
2019-06-17T10:38:51.011Z,292.50
2019-06-17T10:39:51.066Z,292.50
2019-06-17T10:40:51.321Z,292.50
2019-06-17T10:41:50.974Z,292.50
2019-06-17T10:42:50.552Z,292.50
2019-06-17T10:43:50.899Z,292.50
2019-06-17T10:44:48.564Z,292.50
2019-06-17T10:45:51.044Z,292.50
2019-06-17T10:46:50.995Z,292.50
2019-06-17T10:47:51.095Z,292.50
2019-06-17T10:48:50.774Z,292.50
2019-06-17T10:49:50.970Z,292.50
2019-06-17T10:50:50.395Z,298.13
2019-06-17T10:51:48.553Z,292.50
2019-06-17T10:52:48.550Z,292.50
2019-06-17T10:53:50.646Z,292.50
2019-06-17T10:54:53.067Z,292.50
2019-06-17T10:55:50.379Z,292.50
2019-06-17T10:56:50.804Z,292.50
2019-06-17T10:57:50.775Z,292.50
2019-06-17T10:58:48.551Z,298.13
2019-06-17T10:59:51.191Z,298.13
2019-06-17T11:00:48.537Z,298.13
2019-06-17T11:01:51.051Z,303.75
2019-06-17T11:02:51.281Z,298.13
2019-06-17T11:03:50.882Z,298.13
2019-06-17T11:04:51.275Z,303.75
2019-06-17T11:05:50.713Z,303.75
2019-06-17T11:06:50.509Z,298.13
2019-06-17T11:08:05.583Z,298.13
2019-06-17T11:08:48.539Z,298.13
2019-06-17T11:09:50.695Z,309.38
2019-06-17T11:10:51.168Z,303.75
2019-06-17T11:11:50.770Z,298.13
2019-06-17T11:12:50.790Z,303.75
2019-06-17T11:13:50.613Z,298.13
2019-06-17T11:14:50.667Z,298.13
2019-06-17T11:15:50.612Z,309.38
2019-06-17T11:16:51.501Z,298.13
2019-06-17T11:17:50.505Z,303.75
2019-06-17T11:18:50.307Z,298.13
2019-06-17T11:19:50.732Z,303.75
2019-06-17T11:20:48.517Z,309.38
2019-06-17T11:21:51.118Z,320.63
2019-06-17T11:22:50.650Z,326.25
2019-06-17T11:23:50.480Z,320.63
2019-06-17T11:24:50.818Z,320.63
2019-06-17T11:25:50.645Z,315.00
2019-06-17T11:26:50.738Z,315.00
2019-06-17T11:27:50.641Z,315.00
2019-06-17T11:28:50.775Z,315.00
2019-06-17T11:29:48.515Z,315.00
2019-06-17T11:30:48.524Z,320.63
2019-06-17T11:31:50.384Z,320.63
2019-06-17T11:32:50.702Z,320.63
2019-06-17T11:33:50.391Z,315.00
2019-06-17T11:34:50.691Z,309.38
2019-06-17T11:35:51.300Z,309.38
2019-06-17T11:36:48.686Z,309.38
2019-06-17T11:37:51.026Z,315.00
2019-06-17T11:38:51.627Z,315.00
2019-06-17T11:39:57.647Z,315.00
2019-06-17T11:40:51.288Z,315.00
2019-06-17T11:41:50.908Z,315.00
2019-06-17T11:42:50.302Z,320.63
2019-06-17T11:43:50.696Z,326.25
2019-06-17T11:44:48.532Z,320.63
2019-06-17T11:45:48.532Z,320.63
2019-06-17T11:46:48.542Z,320.63
2019-06-17T11:47:51.111Z,320.63
2019-06-17T11:48:50.672Z,315.00
2019-06-17T11:49:50.489Z,315.00
2019-06-17T11:50:50.923Z,315.00
2019-06-17T11:51:51.354Z,320.63
2019-06-17T11:53:01.539Z,320.63
2019-06-17T11:53:50.525Z,326.25
2019-06-17T11:54:50.938Z,326.25
2019-06-17T11:55:48.553Z,326.25
2019-06-17T11:56:51.064Z,331.88
2019-06-17T11:57:50.857Z,331.88
2019-06-17T11:58:48.548Z,337.50
2019-06-17T11:59:57.752Z,337.50
2019-06-17T12:00:50.389Z,337.50
2019-06-17T12:01:50.755Z,337.50
2019-06-17T12:02:55.629Z,337.50
2019-06-17T12:03:50.714Z,337.50
2019-06-17T12:04:50.662Z,337.50
2019-06-17T12:05:50.841Z,84.38
2019-06-17T12:06:51.467Z,343.13
2019-06-17T12:07:51.375Z,303.75
2019-06-17T12:08:51.393Z,343.13
2019-06-17T12:09:50.609Z,354.38
2019-06-17T12:11:03.583Z,354.38
2019-06-17T12:11:50.770Z,354.38
2019-06-17T12:12:50.863Z,354.38
2019-06-17T12:13:50.980Z,354.38
2019-06-17T12:14:50.902Z,348.75
2019-06-17T12:15:50.944Z,354.38
2019-06-17T12:16:51.108Z,354.38
2019-06-17T12:17:50.573Z,360.00
2019-06-17T12:18:51.039Z,348.75
2019-06-17T12:19:48.603Z,360.00
2019-06-17T12:20:51.026Z,365.63
2019-06-17T12:21:51.257Z,371.25
2019-06-17T12:22:51.013Z,382.50
2019-06-17T12:23:50.875Z,393.75
2019-06-17T12:24:50.825Z,399.38
2019-06-17T12:25:50.723Z,399.38
2019-06-17T12:26:51.403Z,399.38
2019-06-17T12:27:51.309Z,337.50
2019-06-17T12:28:48.631Z,270.00
2019-06-17T12:29:48.867Z,410.63
2019-06-17T12:30:48.731Z,416.25
2019-06-17T12:31:50.500Z,421.88
2019-06-17T12:32:50.716Z,438.75
2019-06-17T12:33:51.104Z,450.00
2019-06-17T12:34:51.298Z,461.25
2019-06-17T12:35:51.197Z,146.25
2019-06-17T12:36:50.978Z,292.50
2019-06-17T12:37:51.489Z,112.50
2019-06-17T12:39:10.680Z,84.38
2019-06-17T12:39:50.792Z,84.38
2019-06-17T12:40:50.646Z,444.38
2019-06-17T12:41:49.862Z,95.63
2019-06-17T12:42:51.088Z,230.63
2019-06-17T12:44:04.111Z,573.75
2019-06-17T12:44:51.599Z,579.38
2019-06-17T12:45:51.651Z,585.00
2019-06-17T12:46:57.845Z,590.63